Time;durP1;ratioP1;P1;durP2;ratioP2;P2;SDS_P1;SDS_P2;PMS_P1;PMS_P2;Temp;Humidity;BMP_temperature;BMP_pressure;BME280_temperature;BME280_humidity;BME280_pressure;Samples;Min_cycle;Max_cycle;Signal;HPM_P1;HPM_P2
2023/04/19 00:02:24;;;;;;;0.00;0.00;;;9.90;99.90;;;;;;5089518;28;20257;-59
2023/04/19 00:04:50;;;;;;;0.10;0.10;;;9.80;99.90;;;;;;5090190;28;20164;-59
2023/04/19 00:07:17;;;;;;;0.08;0.03;;;9.80;99.90;;;;;;5089970;28;20180;-59
2023/04/19 00:09:43;;;;;;;0.00;0.00;;;9.80;99.90;;;;;;5090225;28;20191;-59
2023/04/19 00:12:08;;;;;;;0.00;0.00;;;9.80;99.90;;;;;;5090838;28;20598;-59
2023/04/19 00:14:34;;;;;;;0.10;0.10;;;9.80;99.90;;;;;;5093947;28;20191;-59
2023/04/19 00:16:59;;;;;;;0.60;0.60;;;9.80;99.90;;;;;;5093695;28;20271;-59
2023/04/19 00:19:25;;;;;;;0.00;0.00;;;9.80;99.90;;;;;;5093645;28;20172;-59
2023/04/19 00:21:51;;;;;;;0.00;0.00;;;9.80;99.90;;;;;;5093295;28;20184;-59
2023/04/19 00:24:16;;;;;;;0.00;0.00;;;9.80;99.90;;;;;;5093100;28;20173;-59
2023/04/19 00:26:43;;;;;;;0.28;0.28;;;9.80;99.90;;;;;;5093323;28;20176;-59
2023/04/19 00:29:08;;;;;;;0.47;0.47;;;9.70;99.90;;;;;;5093443;28;20196;-58
2023/04/19 00:31:34;;;;;;;0.00;0.00;;;9.70;99.90;;;;;;5093143;28;20220;-59
2023/04/19 00:33:59;;;;;;;0.00;0.00;;;9.70;99.90;;;;;;5092877;28;20179;-59
2023/04/19 00:36:26;;;;;;;0.10;0.10;;;9.70;99.90;;;;;;5093020;28;20182;-59
2023/04/19 00:38:51;;;;;;;0.00;0.00;;;9.70;99.90;;;;;;5092896;28;20177;-59
2023/04/19 00:41:17;;;;;;;0.00;0.00;;;9.70;99.90;;;;;;5092715;28;20195;-59
2023/04/19 00:43:42;;;;;;;0.00;0.00;;;9.60;99.90;;;;;;5092788;28;20176;-59
2023/04/19 00:46:08;;;;;;;0.00;0.00;;;9.70;99.90;;;;;;5092492;28;20180;-59
2023/04/19 00:48:37;;;;;;;0.00;0.00;;;9.70;99.90;;;;;;5092774;28;20180;-59
2023/04/19 00:51:03;;;;;;;0.00;0.00;;;9.60;99.90;;;;;;5093102;28;20191;-59
2023/04/19 00:53:29;;;;;;;0.20;0.20;;;9.60;99.90;;;;;;5093032;28;20623;-59
2023/04/19 00:55:56;;;;;;;0.08;0.08;;;9.60;99.90;;;;;;5093434;28;20172;-59
2023/04/19 00:58:22;;;;;;;0.00;0.00;;;9.50;99.90;;;;;;5087396;28;20208;-59
2023/04/19 01:00:48;;;;;;;0.10;0.10;;;9.50;99.90;;;;;;5076754;28;20246;-59
2023/04/19 01:03:13;;;;;;;0.00;0.00;;;9.50;99.90;;;;;;5082229;28;20263;-59
2023/04/19 01:05:39;;;;;;;0.00;0.00;;;9.50;99.90;;;;;;5092532;28;20284;-59
2023/04/19 01:08:05;;;;;;;0.10;0.10;;;9.50;99.90;;;;;;5092466;28;20600;-59
2023/04/19 01:10:30;;;;;;;0.10;0.10;;;9.50;99.90;;;;;;5092935;28;20739;-59
2023/04/19 01:12:56;;;;;;;0.00;0.00;;;9.60;99.90;;;;;;5092520;28;20219;-59
2023/04/19 01:15:22;;;;;;;0.00;0.00;;;9.60;99.90;;;;;;5092345;28;20234;-59
2023/04/19 01:17:47;;;;;;;0.10;0.10;;;9.60;99.90;;;;;;5092758;28;20172;-59
2023/04/19 01:20:14;;;;;;;0.17;0.17;;;9.60;99.90;;;;;;5092492;28;20184;-59
2023/04/19 01:22:39;;;;;;;0.00;0.00;;;9.50;99.90;;;;;;5092992;28;20662;-59
2023/04/19 01:25:06;;;;;;;0.00;0.00;;;9.50;99.90;;;;;;5091929;28;20207;-59
2023/04/19 01:27:32;;;;;;;0.10;0.10;;;9.50;99.90;;;;;;5092456;28;20263;-59
2023/04/19 01:29:57;;;;;;;0.00;0.00;;;9.50;99.90;;;;;;5092547;28;20206;-59
2023/04/19 01:32:25;;;;;;;0.00;0.00;;;9.50;99.90;;;;;;5086064;28;20244;-59
2023/04/19 01:34:51;;;;;;;0.00;0.00;;;9.50;99.90;;;;;;5072471;28;20175;-59
2023/04/19 01:37:16;;;;;;;0.00;0.00;;;9.50;99.90;;;;;;5072353;28;20207;-59
2023/04/19 01:39:42;;;;;;;0.22;0.22;;;9.50;99.90;;;;;;5072223;28;20181;-59
2023/04/19 01:42:08;;;;;;;0.00;0.00;;;9.50;99.90;;;;;;5090180;28;20275;-59
2023/04/19 01:44:33;;;;;;;0.00;0.00;;;9.50;99.90;;;;;;5092470;28;20627;-59
2023/04/19 01:46:59;;;;;;;0.03;0.03;;;9.50;99.90;;;;;;5092400;28;20577;-58
2023/04/19 01:49:24;;;;;;;0.00;0.00;;;9.50;99.90;;;;;;5092062;28;20183;-59
2023/04/19 01:51:50;;;;;;;0.00;0.00;;;9.50;99.90;;;;;;5091303;28;20739;-59
2023/04/19 01:54:15;;;;;;;1.35;0.28;;;9.50;99.90;;;;;;5091574;28;20525;-59
2023/04/19 01:56:41;;;;;;;0.00;0.00;;;9.50;99.90;;;;;;5091501;28;20282;-59
2023/04/19 01:59:07;;;;;;;0.00;0.00;;;9.50;99.90;;;;;;5091584;28;20187;-59
2023/04/19 02:01:32;;;;;;;0.05;0.05;;;9.50;99.90;;;;;;5090608;28;20188;-59
2023/04/19 02:03:58;;;;;;;0.52;0.52;;;9.50;99.90;;;;;;5087200;28;20184;-59
2023/04/19 02:06:23;;;;;;;0.00;0.00;;;9.50;99.90;;;;;;5071662;28;20181;-59
2023/04/19 02:08:49;;;;;;;0.00;0.00;;;9.50;99.90;;;;;;5064774;28;20176;-59
2023/04/19 02:11:14;;;;;;;0.00;0.00;;;9.50;99.90;;;;;;5091896;28;20180;-59
2023/04/19 02:13:40;;;;;;;0.00;0.00;;;9.50;99.90;;;;;;5091757;28;20184;-59
2023/04/19 02:16:07;;;;;;;0.00;0.00;;;9.40;99.90;;;;;;5091377;28;20251;-59
2023/04/19 02:18:37;;;;;;;0.00;0.00;;;9.40;99.90;;;;;;5091611;28;20175;-59
2023/04/19 02:21:03;;;;;;;0.15;0.15;;;9.40;99.90;;;;;;5091587;28;20542;-59
2023/04/19 02:23:28;;;;;;;0.00;0.00;;;9.40;99.90;;;;;;5091484;28;20176;-59
2023/04/19 02:25:54;;;;;;;0.10;0.10;;;9.40;99.90;;;;;;5091438;28;20301;-59
2023/04/19 02:28:19;;;;;;;0.00;0.00;;;9.40;99.90;;;;;;5091343;28;20231;-59
2023/04/19 02:30:45;;;;;;;0.20;0.20;;;9.40;99.90;;;;;;5091522;28;20198;-59
2023/04/19 02:33:11;;;;;;;0.00;0.00;;;9.40;99.90;;;;;;5091289;28;20242;-59
2023/04/19 02:35:37;;;;;;;0.03;0.03;;;9.40;99.90;;;;;;5091103;28;20172;-59
2023/04/19 02:38:03;;;;;;;0.00;0.00;;;9.40;99.90;;;;;;5091415;28;20233;-59
2023/04/19 02:40:29;;;;;;;0.00;0.00;;;9.40;99.90;;;;;;5091262;28;20673;-59
2023/04/19 02:42:55;;;;;;;0.00;0.00;;;9.30;99.90;;;;;;5091458;28;20176;-59
2023/04/19 02:45:20;;;;;;;0.00;0.00;;;9.30;99.90;;;;;;5091091;28;20538;-59
2023/04/19 02:47:46;;;;;;;0.00;0.00;;;9.30;99.90;;;;;;5091568;28;20187;-59
2023/04/19 02:50:12;;;;;;;0.00;0.00;;;9.30;99.90;;;;;;5091122;28;20654;-59
2023/04/19 02:52:38;;;;;;;0.00;0.00;;;9.30;99.90;;;;;;5091406;28;20219;-59
2023/04/19 02:55:04;;;;;;;0.00;0.00;;;9.30;99.90;;;;;;5091361;28;20539;-59
2023/04/19 02:57:30;;;;;;;0.10;0.10;;;9.20;99.90;;;;;;5090781;28;20184;-58
2023/04/19 02:59:55;;;;;;;0.30;0.30;;;9.20;99.90;;;;;;5091297;28;20266;-59
2023/04/19 03:02:21;;;;;;;1.65;0.20;;;9.20;99.90;;;;;;5091065;28;20226;-58
2023/04/19 03:04:47;;;;;;;0.00;0.00;;;9.20;99.90;;;;;;5080163;28;20204;-58
2023/04/19 03:07:13;;;;;;;0.00;0.00;;;9.10;99.90;;;;;;5086965;28;20188;-58
2023/04/19 03:09:38;;;;;;;0.00;0.00;;;9.10;99.90;;;;;;5090799;28;20216;-58
2023/04/19 03:12:06;;;;;;;0.10;0.10;;;9.10;99.90;;;;;;5090825;28;20629;-58
2023/04/19 03:14:32;;;;;;;0.55;0.55;;;9.10;99.90;;;;;;5090265;28;20614;-58
2023/04/19 03:16:58;;;;;;;0.00;0.00;;;9.10;99.90;;;;;;5090561;28;20202;-58
2023/04/19 03:19:24;;;;;;;0.00;0.00;;;9.10;99.90;;;;;;5090587;28;20184;-58
2023/04/19 03:21:49;;;;;;;0.00;0.00;;;9.10;99.90;;;;;;5090866;28;20646;-59
2023/04/19 03:24:17;;;;;;;0.00;0.00;;;9.10;99.90;;;;;;5090093;28;20542;-59
2023/04/19 03:26:42;;;;;;;0.00;0.00;;;9.10;99.90;;;;;;5088516;28;20230;-59
2023/04/19 03:29:08;;;;;;;0.00;0.00;;;9.10;99.90;;;;;;5090416;28;20675;-59
2023/04/19 03:31:33;;;;;;;0.30;0.30;;;9.10;99.90;;;;;;5072149;28;20208;-59
2023/04/19 03:33:59;;;;;;;0.00;0.00;;;9.10;99.90;;;;;;5090367;28;20274;-59
2023/04/19 03:36:25;;;;;;;0.00;0.00;;;9.10;99.90;;;;;;5090089;28;20189;-58
2023/04/19 03:38:51;;;;;;;0.10;0.10;;;9.10;99.90;;;;;;5072293;28;20180;-59
2023/04/19 03:41:24;;;;;;;0.00;0.00;;;9.10;99.90;;;;;;5089784;28;20184;-58
2023/04/19 03:43:50;;;;;;;0.00;0.00;;;9.10;99.90;;;;;;5089930;28;20187;-59
2023/04/19 03:46:15;;;;;;;0.00;0.00;;;9.10;99.90;;;;;;5090267;28;20180;-58
2023/04/19 03:48:41;;;;;;;0.22;0.22;;;9.00;99.90;;;;;;5093713;28;20176;-60
2023/04/19 03:51:06;;;;;;;0.35;0.22;;;9.00;99.90;;;;;;5094308;28;20181;-60
2023/04/19 03:53:32;;;;;;;0.15;0.15;;;9.00;99.90;;;;;;5094283;28;20196;-59
2023/04/19 03:55:58;;;;;;;0.00;0.00;;;9.00;99.90;;;;;;5093952;28;20222;-61
2023/04/19 03:58:24;;;;;;;0.00;0.00;;;9.00;99.90;;;;;;5076700;28;20176;-58
2023/04/19 04:00:50;;;;;;;0.25;0.25;;;9.00;99.90;;;;;;5094667;28;20164;-58
2023/04/19 04:03:16;;;;;;;0.10;0.10;;;9.00;99.90;;;;;;5089007;28;20663;-58
2023/04/19 04:05:42;;;;;;;0.10;0.10;;;9.00;99.90;;;;;;5092295;28;20180;-64
2023/04/19 04:08:07;;;;;;;0.00;0.00;;;8.90;99.90;;;;;;5093829;28;20300;-60
2023/04/19 04:10:33;;;;;;;0.00;0.00;;;8.90;99.90;;;;;;5093829;28;20188;-61
2023/04/19 04:12:58;;;;;;;0.00;0.00;;;8.90;99.90;;;;;;5093288;28;20273;-58
2023/04/19 04:15:24;;;;;;;0.05;0.05;;;8.90;99.90;;;;;;5093502;28;20261;-58
2023/04/19 04:17:50;;;;;;;0.10;0.10;;;9.00;99.90;;;;;;5093532;28;20631;-58
2023/04/19 04:20:15;;;;;;;0.20;0.20;;;9.00;99.90;;;;;;5093855;28;20176;-58
2023/04/19 04:22:42;;;;;;;0.00;0.00;;;9.00;99.90;;;;;;5093737;28;20180;-58
2023/04/19 04:25:08;;;;;;;0.00;0.00;;;8.90;99.90;;;;;;5093657;28;20267;-58
2023/04/19 04:27:34;;;;;;;0.05;0.05;;;8.90;99.90;;;;;;5093641;28;20220;-58
2023/04/19 04:30:00;;;;;;;0.15;0.15;;;8.80;99.90;;;;;;5093930;28;20199;-60
2023/04/19 04:32:26;;;;;;;0.00;0.00;;;8.70;99.90;;;;;;5093435;28;20604;-58
2023/04/19 04:34:51;;;;;;;0.10;0.10;;;8.70;99.90;;;;;;5093460;28;20164;-58
2023/04/19 04:37:17;;;;;;;0.10;0.10;;;8.70;99.90;;;;;;5093391;28;20195;-58
2023/04/19 04:39:43;;;;;;;0.10;0.10;;;8.70;99.90;;;;;;5093512;28;20665;-58
2023/04/19 04:42:08;;;;;;;0.10;0.03;;;8.70;99.90;;;;;;5093528;28;20206;-59
2023/04/19 04:44:35;;;;;;;0.00;0.00;;;8.60;99.90;;;;;;5093464;28;20185;-59
2023/04/19 04:47:01;;;;;;;0.00;0.00;;;8.60;99.90;;;;;;5093491;28;20250;-59
2023/04/19 04:49:27;;;;;;;0.00;0.00;;;8.60;99.90;;;;;;5092973;28;20302;-59
2023/04/19 04:51:52;;;;;;;0.20;0.20;;;8.60;99.90;;;;;;5091854;28;20251;-59
2023/04/19 04:54:18;;;;;;;0.00;0.00;;;8.60;99.90;;;;;;5092916;28;20176;-59
2023/04/19 04:56:43;;;;;;;0.00;0.00;;;8.60;99.90;;;;;;5092710;28;20226;-59
2023/04/19 04:59:10;;;;;;;0.00;0.00;;;8.60;99.90;;;;;;5092568;28;20271;-59
2023/04/19 05:01:35;;;;;;;0.00;0.00;;;8.60;99.90;;;;;;5092686;28;20233;-59
2023/04/19 05:04:01;;;;;;;0.00;0.00;;;8.60;99.90;;;;;;5080765;28;20185;-59
2023/04/19 05:06:26;;;;;;;0.20;0.10;;;8.60;99.90;;;;;;5072284;28;20212;-60
2023/04/19 05:08:52;;;;;;;0.00;0.00;;;8.60;99.90;;;;;;5072225;28;20238;-59
2023/04/19 05:11:18;;;;;;;0.00;0.00;;;8.60;99.90;;;;;;5071916;28;20238;-59
2023/04/19 05:13:44;;;;;;;0.20;0.20;;;8.70;99.90;;;;;;5072227;28;20177;-59
2023/04/19 05:16:09;;;;;;;0.00;0.00;;;8.80;99.90;;;;;;5071993;28;20555;-59
2023/04/19 05:18:35;;;;;;;0.00;0.00;;;8.90;99.90;;;;;;5087161;28;20229;-58
2023/04/19 05:21:00;;;;;;;0.00;0.00;;;8.90;99.90;;;;;;5092201;28;20176;-59
2023/04/19 05:23:26;;;;;;;0.00;0.00;;;8.90;99.90;;;;;;5092277;28;20172;-59
2023/04/19 05:25:51;;;;;;;0.00;0.00;;;8.90;99.90;;;;;;5092106;28;20176;-59
2023/04/19 05:28:17;;;;;;;0.00;0.00;;;8.90;99.90;;;;;;5092060;28;20315;-59
2023/04/19 05:30:42;;;;;;;0.00;0.00;;;8.80;99.90;;;;;;5092038;28;20190;-59
2023/04/19 05:33:08;;;;;;;0.10;0.10;;;8.80;99.90;;;;;;5091965;28;20269;-59
2023/04/19 05:35:33;;;;;;;0.00;0.00;;;8.80;99.90;;;;;;5091802;28;20192;-59
2023/04/19 05:37:59;;;;;;;0.03;0.03;;;8.80;99.90;;;;;;5092008;28;20180;-59
2023/04/19 05:40:24;;;;;;;0.00;0.00;;;8.80;99.90;;;;;;5091881;28;20275;-58
2023/04/19 05:42:50;;;;;;;0.00;0.00;;;8.80;99.90;;;;;;5091666;28;20191;-58
2023/04/19 05:45:17;;;;;;;0.00;0.00;;;8.80;99.90;;;;;;5091722;28;20614;-59
2023/04/19 05:47:43;;;;;;;0.00;0.00;;;8.90;99.90;;;;;;5091639;28;20187;-58
2023/04/19 05:50:09;;;;;;;0.00;0.00;;;8.90;99.90;;;;;;5091367;28;20176;-59
2023/04/19 05:52:34;;;;;;;0.00;0.00;;;9.00;99.90;;;;;;5091559;28;20207;-58
2023/04/19 05:55:00;;;;;;;0.00;0.00;;;9.20;99.90;;;;;;5091497;28;20709;-58
2023/04/19 05:57:26;;;;;;;0.00;0.00;;;9.30;99.90;;;;;;5091285;28;20298;-59
2023/04/19 05:59:51;;;;;;;0.00;0.00;;;9.70;99.90;;;;;;5091320;28;20474;-59
2023/04/19 06:02:17;;;;;;;0.00;0.00;;;10.30;99.90;;;;;;5091199;28;20241;-59
2023/04/19 06:04:42;;;;;;;0.00;0.00;;;11.00;99.90;;;;;;5084530;28;20683;-59
2023/04/19 06:07:08;;;;;;;0.30;0.30;;;11.70;99.90;;;;;;5076466;28;20273;-59
2023/04/19 06:09:33;;;;;;;0.00;0.00;;;12.40;99.90;;;;;;5090498;28;20221;-59
2023/04/19 06:11:59;;;;;;;0.00;0.00;;;12.90;99.90;;;;;;5091410;28;20223;-59
2023/04/19 06:14:27;;;;;;;0.00;0.00;;;13.40;99.90;;;;;;5091219;28;20175;-59
2023/04/19 06:16:52;;;;;;;0.00;0.00;;;13.70;99.90;;;;;;5090929;28;20642;-59
2023/04/19 06:19:18;;;;;;;0.00;0.00;;;14.00;99.90;;;;;;5091093;28;20184;-59
2023/04/19 06:21:43;;;;;;;0.55;0.28;;;14.20;99.90;;;;;;5091133;28;20199;-59
2023/04/19 06:24:09;;;;;;;0.00;0.00;;;14.50;99.90;;;;;;5091463;28;20167;-59
2023/04/19 06:26:34;;;;;;;0.00;0.00;;;14.60;99.60;;;;;;5091504;28;20176;-59
2023/04/19 06:29:00;;;;;;;0.00;0.00;;;14.70;99.50;;;;;;5091457;28;20179;-59
2023/04/19 06:31:25;;;;;;;0.00;0.00;;;14.90;99.60;;;;;;5091480;28;20263;-59
2023/04/19 06:33:51;;;;;;;0.00;0.00;;;15.20;99.30;;;;;;5091433;28;20187;-59
2023/04/19 06:36:16;;;;;;;0.00;0.00;;;15.40;98.10;;;;;;5091535;28;20251;-59
2023/04/19 06:38:43;;;;;;;0.00;0.00;;;15.70;97.90;;;;;;5091717;28;20226;-59
2023/04/19 06:41:09;;;;;;;0.00;0.00;;;16.00;97.50;;;;;;5091515;28;20654;-59
2023/04/19 06:43:35;;;;;;;0.00;0.00;;;16.30;96.70;;;;;;5091378;28;20187;-59
2023/04/19 06:46:03;;;;;;;0.00;0.00;;;16.30;96.10;;;;;;5091294;28;20546;-59
2023/04/19 06:48:29;;;;;;;0.00;0.00;;;16.40;96.30;;;;;;5091165;28;20186;-59
2023/04/19 06:50:55;;;;;;;0.00;0.00;;;16.60;95.70;;;;;;5091278;28;20176;-59
2023/04/19 06:53:21;;;;;;;0.05;0.05;;;16.70;94.80;;;;;;5091201;28;20215;-59
2023/04/19 06:55:46;;;;;;;0.00;0.00;;;16.60;94.90;;;;;;5091170;28;20180;-59
2023/04/19 06:58:12;;;;;;;0.00;0.00;;;16.80;94.80;;;;;;5091012;28;20195;-59
2023/04/19 07:00:38;;;;;;;0.00;0.00;;;16.80;94.40;;;;;;5091150;28;20175;-59
2023/04/19 07:03:03;;;;;;;0.00;0.00;;;16.60;94.30;;;;;;5091162;28;20225;-59
2023/04/19 07:05:30;;;;;;;0.00;0.00;;;16.40;94.30;;;;;;5091064;28;20184;-59
2023/04/19 07:07:55;;;;;;;0.88;0.28;;;16.40;94.80;;;;;;5088049;28;20642;-59
2023/04/19 07:10:21;;;;;;;0.00;0.00;;;16.50;94.50;;;;;;5086166;28;20210;-59
2023/04/19 07:12:46;;;;;;;0.00;0.00;;;16.70;94.80;;;;;;5086674;28;20222;-59
2023/04/19 07:15:12;;;;;;;0.00;0.00;;;17.20;94.30;;;;;;5080657;28;20234;-59
2023/04/19 07:17:37;;;;;;;0.00;0.00;;;17.80;93.90;;;;;;5083770;28;20617;-59
2023/04/19 07:20:05;;;;;;;0.00;0.00;;;18.40;92.80;;;;;;5090981;28;20172;-59
2023/04/19 07:22:31;;;;;;;0.00;0.00;;;19.10;91.40;;;;;;5092372;28;20235;-59
2023/04/19 07:24:57;;;;;;;0.00;0.00;;;19.60;90.00;;;;;;5095310;28;20204;-59
2023/04/19 07:27:23;;;;;;;0.00;0.00;;;20.00;88.80;;;;;;5094769;28;20652;-59
2023/04/19 07:29:48;;;;;;;0.05;0.05;;;20.30;85.90;;;;;;5095153;28;20172;-59
2023/04/19 07:32:14;;;;;;;0.00;0.00;;;20.40;83.50;;;;;;5094605;28;20701;-59
2023/04/19 07:34:40;;;;;;;0.08;0.08;;;20.00;82.10;;;;;;5095082;28;20199;-59
2023/04/19 07:37:06;;;;;;;0.00;0.00;;;19.60;81.90;;;;;;5094759;28;20647;-59
2023/04/19 07:39:32;;;;;;;0.00;0.00;;;19.70;83.10;;;;;;5094877;28;20640;-59
2023/04/19 07:41:57;;;;;;;0.00;0.00;;;20.00;82.90;;;;;;5094803;28;20192;-59
2023/04/19 07:44:23;;;;;;;0.00;0.00;;;20.30;81.20;;;;;;5094505;28;20207;-59
2023/04/19 07:46:49;;;;;;;0.00;0.00;;;20.30;80.10;;;;;;5094488;28;20262;-59
2023/04/19 07:49:15;;;;;;;0.00;0.00;;;19.70;79.00;;;;;;5094456;28;20236;-59
2023/04/19 07:51:40;;;;;;;0.00;0.00;;;18.80;80.80;;;;;;5094351;28;20655;-59
2023/04/19 07:54:06;;;;;;;0.00;0.00;;;18.40;84.00;;;;;;5094578;28;20180;-57
2023/04/19 07:56:32;;;;;;;0.00;0.00;;;18.10;85.60;;;;;;5094284;28;20172;-57
2023/04/19 07:58:58;;;;;;;0.00;0.00;;;17.70;86.80;;;;;;5094447;28;20259;-57
2023/04/19 08:01:24;;;;;;;0.00;0.00;;;17.10;87.40;;;;;;5094516;28;20241;-58
2023/04/19 08:03:50;;;;;;;0.00;0.00;;;16.40;89.90;;;;;;5094630;28;20180;-58
2023/04/19 08:06:16;;;;;;;0.00;0.00;;;15.90;91.10;;;;;;5094460;28;20183;-57
2023/04/19 08:08:42;;;;;;;0.10;0.10;;;15.50;92.30;;;;;;5094393;28;20514;-57
2023/04/19 08:11:08;;;;;;;0.00;0.00;;;15.00;93.10;;;;;;5094428;28;20182;-58
2023/04/19 08:13:33;;;;;;;0.00;0.00;;;14.70;94.50;;;;;;5094251;28;20262;-58
2023/04/19 08:15:59;;;;;;;0.00;0.00;;;14.30;95.30;;;;;;5094261;28;20177;-58
2023/04/19 08:18:24;;;;;;;0.28;0.28;;;13.90;96.40;;;;;;5087803;28;20618;-58
2023/04/19 08:20:50;;;;;;;0.00;0.00;;;13.60;97.50;;;;;;5094308;28;20172;-60
2023/04/19 08:23:16;;;;;;;0.17;0.15;;;13.40;98.70;;;;;;5094113;28;20635;-60
2023/04/19 08:25:42;;;;;;;0.08;0.08;;;13.20;99.30;;;;;;5094179;28;20181;-58
2023/04/19 08:28:08;;;;;;;0.00;0.00;;;13.10;99.90;;;;;;5093863;28;20256;-58
2023/04/19 08:30:33;;;;;;;0.00;0.00;;;13.30;99.90;;;;;;5093668;28;20175;-58
2023/04/19 08:33:00;;;;;;;0.00;0.00;;;13.40;99.90;;;;;;5093501;28;20224;-58
2023/04/19 08:35:25;;;;;;;0.00;0.00;;;13.40;99.90;;;;;;5093914;28;20180;-58
2023/04/19 08:37:51;;;;;;;0.28;0.22;;;13.60;99.90;;;;;;5093459;28;20181;-59
2023/04/19 08:40:17;;;;;;;0.00;0.00;;;13.70;99.90;;;;;;5093657;28;20176;-59
2023/04/19 08:42:42;;;;;;;0.00;0.00;;;13.90;99.40;;;;;;5093762;28;20245;-59
2023/04/19 08:45:11;;;;;;;0.00;0.00;;;14.10;99.00;;;;;;5093597;28;20275;-59
2023/04/19 08:47:39;;;;;;;0.00;0.00;;;14.20;99.00;;;;;;5093733;28;20176;-59
2023/04/19 08:50:06;;;;;;;0.00;0.00;;;14.30;99.00;;;;;;5093634;28;20243;-59
2023/04/19 08:52:36;;;;;;;0.00;0.00;;;14.30;98.50;;;;;;5093144;28;20318;-58
2023/04/19 08:55:06;;;;;;;0.00;0.00;;;14.20;98.60;;;;;;5093457;28;20190;-59
2023/04/19 08:57:33;;;;;;;0.00;0.00;;;14.10;98.50;;;;;;5093345;28;20172;-59
2023/04/19 09:00:06;;;;;;;0.00;0.00;;;14.00;98.90;;;;;;5093450;28;20640;-59
2023/04/19 09:02:46;;;;;;;0.20;0.10;;;13.80;99.10;;;;;;5075147;28;20180;-59
2023/04/19 09:05:14;;;;;;;0.00;0.00;;;13.70;99.60;;;;;;5093090;28;20195;-59
2023/04/19 09:07:41;;;;;;;0.00;0.00;;;13.70;99.70;;;;;;5093358;28;20186;-59
2023/04/19 09:10:08;;;;;;;0.00;0.00;;;13.70;99.90;;;;;;5093223;28;20203;-59
2023/04/19 09:12:35;;;;;;;0.20;0.20;;;13.80;99.90;;;;;;5093140;28;20215;-59
2023/04/19 09:15:03;;;;;;;0.10;0.10;;;13.90;99.90;;;;;;5091704;28;20176;-59
2023/04/19 09:17:30;;;;;;;0.00;0.00;;;14.10;99.90;;;;;;5090459;28;20176;-59
2023/04/19 09:19:56;;;;;;;0.00;0.00;;;14.50;99.80;;;;;;5083298;28;20172;-59
2023/04/19 09:22:22;;;;;;;0.00;0.00;;;14.90;99.80;;;;;;5072656;28;20184;-59
2023/04/19 09:24:48;;;;;;;0.00;0.00;;;15.60;99.60;;;;;;5072736;28;20193;-59
2023/04/19 09:27:23;;;;;;;0.00;0.00;;;16.50;97.80;;;;;;5072227;28;20231;-59
2023/04/19 09:29:53;;;;;;;0.40;0.40;;;17.30;96.00;;;;;;5072827;28;20225;-59
2023/04/19 09:32:19;;;;;;;0.00;0.00;;;18.20;95.90;;;;;;5072566;28;20216;-59
2023/04/19 09:34:58;;;;;;;0.10;0.10;;;18.90;93.50;;;;;;5072667;28;20172;-59
2023/04/19 09:37:25;;;;;;;0.00;0.00;;;19.10;90.00;;;;;;5072556;28;20180;-59
2023/04/19 09:39:51;;;;;;;0.00;0.00;;;18.50;89.30;;;;;;5072405;28;20315;-59
2023/04/19 09:42:18;;;;;;;0.00;0.00;;;17.90;89.60;;;;;;5072397;28;20181;-59
2023/04/19 09:44:57;;;;;;;0.00;0.00;;;17.40;91.00;;;;;;5071590;28;20172;-59
2023/04/19 09:47:28;;;;;;;0.00;0.00;;;17.10;91.20;;;;;;5072209;28;20241;-59
2023/04/19 09:50:07;;;;;;;0.00;0.00;;;16.80;91.60;;;;;;5072007;28;20176;-59
2023/04/19 09:52:33;;;;;;;0.00;0.00;;;16.40;92.30;;;;;;5071994;28;20216;-59
2023/04/19 09:55:04;;;;;;;0.00;0.00;;;16.10;93.10;;;;;;5072191;28;20181;-59
2023/04/19 09:57:30;;;;;;;0.00;0.00;;;16.00;93.30;;;;;;5072114;28;20172;-59
2023/04/19 09:59:58;;;;;;;0.00;0.00;;;15.80;93.50;;;;;;5072060;28;20180;-59
2023/04/19 10:02:29;;;;;;;0.00;0.00;;;15.40;93.80;;;;;;5071690;28;20205;-59
2023/04/19 10:04:56;;;;;;;0.00;0.00;;;15.20;94.40;;;;;;5071756;28;20180;-59
2023/04/19 10:07:23;;;;;;;0.00;0.00;;;15.10;94.90;;;;;;5071940;28;20169;-58
2023/04/19 10:09:50;;;;;;;0.00;0.00;;;15.00;94.80;;;;;;5071905;28;20181;-59
2023/04/19 10:12:15;;;;;;;0.00;0.00;;;15.00;95.10;;;;;;5071682;28;20192;-59
2023/04/19 10:14:42;;;;;;;0.00;0.00;;;15.00;95.20;;;;;;5053909;28;20234;-59
2023/04/19 10:17:07;;;;;;;0.00;0.00;;;15.00;95.10;;;;;;5074608;28;20168;-59
2023/04/19 10:19:36;;;;;;;0.10;0.10;;;15.00;95.60;;;;;;5091945;28;20172;-59
2023/04/19 10:22:05;;;;;;;0.00;0.00;;;15.00;95.80;;;;;;5091988;28;20586;-59
2023/04/19 10:24:32;;;;;;;0.00;0.00;;;15.00;95.60;;;;;;5073527;28;20178;-59
2023/04/19 10:27:10;;;;;;;0.00;0.00;;;15.20;95.80;;;;;;5079776;28;20220;-59
2023/04/19 10:29:53;;;;;;;0.00;0.00;;;15.20;95.70;;;;;;5071640;28;20256;-59
2023/04/19 10:32:19;;;;;;;0.00;0.00;;;15.20;96.10;;;;;;5071480;28;20248;-59
2023/04/19 10:34:46;;;;;;;0.00;0.00;;;15.20;95.90;;;;;;5071573;28;20274;-59
2023/04/19 10:37:14;;;;;;;0.00;0.00;;;15.00;95.90;;;;;;5071415;28;20165;-59
2023/04/19 10:39:42;;;;;;;0.00;0.00;;;14.90;96.40;;;;;;5071517;28;20180;-59
2023/04/19 10:42:07;;;;;;;0.00;0.00;;;14.90;96.90;;;;;;5071557;28;20169;-59
2023/04/19 10:44:33;;;;;;;0.00;0.00;;;14.90;96.80;;;;;;5071246;28;20226;-59
2023/04/19 10:46:59;;;;;;;0.10;0.10;;;14.70;96.60;;;;;;5071410;28;20181;-59
2023/04/19 10:49:26;;;;;;;0.10;0.10;;;14.40;97.10;;;;;;5071305;28;20203;-59
2023/04/19 10:51:53;;;;;;;0.15;0.15;;;14.20;97.50;;;;;;5071101;28;20215;-59
2023/04/19 10:54:29;;;;;;;0.17;0.17;;;14.00;98.10;;;;;;5070927;28;20212;-60
2023/04/19 10:56:57;;;;;;;0.03;0.03;;;13.90;98.70;;;;;;5070916;28;20172;-60
2023/04/19 10:59:23;;;;;;;0.00;0.00;;;13.70;98.70;;;;;;5071140;28;20263;-60
2023/04/19 11:01:54;;;;;;;0.00;0.00;;;13.60;99.10;;;;;;5071171;28;20264;-60
2023/04/19 11:04:29;;;;;;;0.00;0.00;;;13.50;99.60;;;;;;5071086;28;20168;-60
2023/04/19 11:06:55;;;;;;;0.00;0.00;;;13.40;99.90;;;;;;5071068;28;20168;-60
2023/04/19 11:09:22;;;;;;;0.00;0.00;;;13.30;99.90;;;;;;5071038;28;20171;-60
2023/04/19 11:11:48;;;;;;;0.00;0.00;;;13.30;99.90;;;;;;5071091;28;20219;-59
2023/04/19 11:14:15;;;;;;;0.00;0.00;;;13.20;99.90;;;;;;5070903;28;20590;-60
2023/04/19 11:16:41;;;;;;;0.00;0.00;;;13.10;99.90;;;;;;5071103;28;20185;-60
2023/04/19 11:19:06;;;;;;;0.00;0.00;;;13.00;99.90;;;;;;5090333;28;20374;-60
2023/04/19 11:21:32;;;;;;;0.00;0.00;;;12.90;99.90;;;;;;5091100;28;20176;-59
2023/04/19 11:24:08;;;;;;;0.00;0.00;;;12.80;99.90;;;;;;5091164;28;20179;-59
2023/04/19 11:26:34;;;;;;;0.00;0.00;;;12.80;99.90;;;;;;5090800;28;20179;-60
2023/04/19 11:29:00;;;;;;;0.00;0.00;;;12.70;99.90;;;;;;5091067;28;20187;-59
2023/04/19 11:31:26;;;;;;;0.00;0.00;;;12.70;99.90;;;;;;5090997;28;20871;-60
2023/04/19 11:33:52;;;;;;;0.00;0.00;;;12.70;99.90;;;;;;5090951;28;20184;-59
2023/04/19 11:36:17;;;;;;;0.00;0.00;;;12.60;99.90;;;;;;5090975;28;20814;-59
2023/04/19 11:38:49;;;;;;;0.00;0.00;;;12.60;99.90;;;;;;5090858;28;20208;-60
2023/04/19 11:41:15;;;;;;;0.00;0.00;;;12.60;99.90;;;;;;5090683;28;20654;-59
2023/04/19 11:43:43;;;;;;;0.00;0.00;;;12.60;99.90;;;;;;5090916;28;20169;-58
2023/04/19 11:46:10;;;;;;;0.08;0.08;;;12.50;99.90;;;;;;5090834;28;20200;-59
2023/04/19 11:48:37;;;;;;;0.00;0.00;;;12.40;99.90;;;;;;5090822;28;20176;-58
2023/04/19 11:51:03;;;;;;;0.00;0.00;;;12.30;99.90;;;;;;5090842;28;20686;-58
2023/04/19 11:53:31;;;;;;;0.10;0.10;;;12.10;99.90;;;;;;5090604;28;20682;-58
2023/04/19 11:56:05;;;;;;;0.10;0.10;;;11.90;99.90;;;;;;5090820;28;20226;-59
2023/04/19 11:58:47;;;;;;;0.00;0.00;;;11.90;99.90;;;;;;5090553;28;20180;-59
2023/04/19 12:01:18;;;;;;;0.00;0.00;;;11.80;99.90;;;;;;5090646;28;20187;-59
2023/04/19 12:03:52;;;;;;;0.00;0.00;;;11.80;99.90;;;;;;5090695;28;20183;-59
2023/04/19 12:06:22;;;;;;;0.05;0.05;;;11.80;99.90;;;;;;5090598;28;20176;-59
2023/04/19 12:08:50;;;;;;;0.00;0.00;;;11.80;99.90;;;;;;5092685;28;20168;-59
2023/04/19 12:11:20;;;;;;;0.03;0.03;;;11.80;99.90;;;;;;5094092;28;20600;-59
2023/04/19 12:13:46;;;;;;;0.00;0.00;;;11.80;99.90;;;;;;5094309;28;20215;-59
2023/04/19 12:16:12;;;;;;;0.00;0.00;;;11.80;99.90;;;;;;5082403;28;20191;-59
2023/04/19 12:18:47;;;;;;;0.00;0.00;;;11.80;99.90;;;;;;5089631;28;20176;-59
2023/04/19 12:21:31;;;;;;;0.00;0.00;;;11.90;99.90;;;;;;5093898;28;20180;-59
2023/04/19 12:23:58;;;;;;;0.00;0.00;;;11.90;99.90;;;;;;5094081;28;20179;-59
2023/04/19 12:26:27;;;;;;;0.00;0.00;;;11.90;99.90;;;;;;5075878;28;20168;-58
2023/04/19 12:28:53;;;;;;;0.00;0.00;;;12.00;99.90;;;;;;5093794;28;20274;-59
2023/04/19 12:31:19;;;;;;;0.00;0.00;;;12.00;99.90;;;;;;5093978;28;20183;-59
2023/04/19 12:33:45;;;;;;;0.00;0.00;;;12.10;99.90;;;;;;5094005;28;20212;-58
2023/04/19 12:36:11;;;;;;;0.00;0.00;;;12.10;99.90;;;;;;5093860;28;20222;-59
2023/04/19 12:38:36;;;;;;;0.00;0.00;;;12.10;99.90;;;;;;5093946;28;20242;-59
2023/04/19 12:41:02;;;;;;;1.13;0.30;;;12.10;99.90;;;;;;5093956;28;20264;-58
2023/04/19 12:43:29;;;;;;;0.10;0.00;;;12.10;99.90;;;;;;5093814;28;20476;-58
2023/04/19 12:45:54;;;;;;;0.00;0.00;;;12.00;99.90;;;;;;5093626;28;20180;-59
2023/04/19 12:48:20;;;;;;;0.10;0.10;;;11.90;99.90;;;;;;5093670;28;20179;-58